createdAt,value
2023-02-24T00:02:01.430Z,6.98
2023-02-24T00:04:32.031Z,7.62
2023-02-24T00:07:00.252Z,6.62
2023-02-24T00:09:30.268Z,8.03
2023-02-24T00:12:09.024Z,7.72
2023-02-24T00:14:38.809Z,8.95
2023-02-24T00:17:10.056Z,8.82
2023-02-24T00:19:38.023Z,7.15
2023-02-24T00:22:08.038Z,8.55
2023-02-24T00:24:35.766Z,7.20
2023-02-24T00:27:08.132Z,5.17
2023-02-24T00:29:37.932Z,5.89
2023-02-24T00:32:07.785Z,7.83
2023-02-24T00:34:36.699Z,8.20
2023-02-24T00:37:07.098Z,8.39
2023-02-24T00:39:35.059Z,8.46
2023-02-24T00:42:06.588Z,7.68
2023-02-24T00:44:46.591Z,9.15
2023-02-24T00:47:18.632Z,6.99
2023-02-24T00:49:46.171Z,6.03
2023-02-24T00:52:16.823Z,8.08
2023-02-24T00:54:45.405Z,8.74
2023-02-24T00:57:12.675Z,9.48
2023-02-24T00:59:40.495Z,9.84
2023-02-24T01:02:07.677Z,9.74
2023-02-24T01:04:35.198Z,8.83
2023-02-24T01:07:02.018Z,9.62
2023-02-24T01:09:31.195Z,9.94
2023-02-24T01:12:18.149Z,9.79
2023-02-24T01:14:49.706Z,10.02
2023-02-24T01:17:18.631Z,9.33
2023-02-24T01:19:49.116Z,9.06
2023-02-24T01:22:18.955Z,8.63
2023-02-24T01:24:46.532Z,8.70
2023-02-24T01:27:17.463Z,8.41
2023-02-24T01:29:45.472Z,7.86
2023-02-24T01:32:21.343Z,10.14
2023-02-24T01:34:52.303Z,10.53
2023-02-24T01:37:19.762Z,9.63
2023-02-24T01:39:47.913Z,9.15
2023-02-24T01:42:17.136Z,10.11
2023-02-24T01:44:48.067Z,9.24
2023-02-24T01:47:20.813Z,9.15
2023-02-24T01:49:52.841Z,9.18
2023-02-24T01:52:23.942Z,8.86
2023-02-24T01:55:01.383Z,9.16
2023-02-24T01:57:31.442Z,8.41
2023-02-24T02:00:11.183Z,8.61
2023-02-24T02:02:46.547Z,8.05
2023-02-24T02:05:15.329Z,8.50
2023-02-24T02:07:43.539Z,8.56
2023-02-24T02:10:12.425Z,9.04
2023-02-24T02:12:44.791Z,8.20
2023-02-24T02:15:14.521Z,6.36
2023-02-24T02:18:08.008Z,5.89
2023-02-24T02:21:02.564Z,8.56
2023-02-24T02:23:38.029Z,8.65
2023-02-24T02:26:26.713Z,7.31
2023-02-24T02:29:34.305Z,6.64
2023-02-24T02:32:32.574Z,6.00
2023-02-24T02:35:19.022Z,7.46
2023-02-24T02:37:56.714Z,7.37
2023-02-24T02:40:33.403Z,7.77
2023-02-24T02:43:41.886Z,7.59
2023-02-24T02:46:17.699Z,7.71
2023-02-24T02:48:54.711Z,6.75
2023-02-24T02:51:29.114Z,6.88
2023-02-24T02:54:04.899Z,5.82
2023-02-24T02:56:40.714Z,4.80
2023-02-24T02:59:12.816Z,6.48
2023-02-24T03:01:43.916Z,5.20
2023-02-24T03:04:17.178Z,6.08
2023-02-24T03:06:48.684Z,7.71
2023-02-24T03:09:22.738Z,7.07
2023-02-24T03:11:56.254Z,7.58
2023-02-24T03:14:29.001Z,7.26
2023-02-24T03:16:59.148Z,8.06
2023-02-24T03:19:37.356Z,7.92
2023-02-24T03:22:28.336Z,4.84
2023-02-24T03:24:55.680Z,6.82
2023-02-24T03:27:50.610Z,5.00
2023-02-24T03:30:26.730Z,7.42
2023-02-24T03:33:01.295Z,7.42
2023-02-24T03:35:34.412Z,7.84
2023-02-24T03:38:03.133Z,7.46
2023-02-24T03:40:33.791Z,7.78
2023-02-24T03:43:06.222Z,7.52
2023-02-24T03:45:38.068Z,7.43
2023-02-24T03:48:08.219Z,7.37
2023-02-24T03:50:36.096Z,7.22
2023-02-24T03:53:09.351Z,7.14
2023-02-24T03:56:00.498Z,6.22
2023-02-24T03:58:47.591Z,6.92
2023-02-24T04:01:25.664Z,6.62
2023-02-24T04:04:06.099Z,7.14
2023-02-24T04:06:55.810Z,6.19
2023-02-24T04:10:09.455Z,4.76
2023-02-24T04:12:50.483Z,5.70
2023-02-24T04:15:29.721Z,6.40
2023-02-24T04:18:01.690Z,5.61
2023-02-24T04:20:35.864Z,5.95
2023-02-24T04:23:11.332Z,6.21
2023-02-24T04:25:42.575Z,6.79
2023-02-24T04:28:11.347Z,6.73
2023-02-24T04:30:48.444Z,6.64
2023-02-24T04:33:15.971Z,6.40
2023-02-24T04:35:48.415Z,5.57
2023-02-24T04:38:15.193Z,5.76
2023-02-24T04:40:42.619Z,6.11
2023-02-24T04:43:09.716Z,6.25
2023-02-24T04:45:40.400Z,6.40
2023-02-24T04:48:12.729Z,7.08
2023-02-24T04:50:43.070Z,7.23
2023-02-24T04:53:16.111Z,4.41
2023-02-24T04:55:48.862Z,3.94
2023-02-24T04:58:21.278Z,4.06
2023-02-24T05:00:52.827Z,4.95
2023-02-24T05:03:21.150Z,2.39
2023-02-24T05:05:52.000Z,4.11
2023-02-24T05:08:19.940Z,3.90
2023-02-24T05:10:47.918Z,6.26
2023-02-24T05:13:28.169Z,7.78
2023-02-24T05:15:57.540Z,7.65
2023-02-24T05:18:24.973Z,5.31
2023-02-24T05:21:12.765Z,6.25
2023-02-24T05:23:44.392Z,4.48
2023-02-24T05:26:17.664Z,3.14
2023-02-24T05:28:49.209Z,1.79
2023-02-24T05:31:28.295Z,2.38
2023-02-24T05:34:01.503Z,5.12
2023-02-24T05:36:45.943Z,5.45
2023-02-24T05:39:19.173Z,6.10
2023-02-24T05:41:48.698Z,7.20
2023-02-24T05:44:23.341Z,6.48
2023-02-24T05:46:56.784Z,4.26
2023-02-24T05:49:27.457Z,4.73
2023-02-24T05:51:56.255Z,4.85
2023-02-24T05:54:24.446Z,5.51
2023-02-24T05:56:51.477Z,5.62
2023-02-24T05:59:21.453Z,6.98
2023-02-24T06:01:49.707Z,6.04
2023-02-24T06:04:39.393Z,5.79
2023-02-24T06:07:19.239Z,6.80
2023-02-24T06:09:50.231Z,7.92
2023-02-24T06:12:18.794Z,8.48
2023-02-24T06:14:45.921Z,8.51
2023-02-24T06:17:15.164Z,8.91
2023-02-24T06:19:43.521Z,7.42
2023-02-24T06:22:14.537Z,7.89
2023-02-24T06:24:44.489Z,8.84
2023-02-24T06:27:18.080Z,8.33
2023-02-24T06:29:50.390Z,8.42
2023-02-24T06:32:19.097Z,8.54
2023-02-24T06:34:46.964Z,8.60
2023-02-24T06:37:18.372Z,5.85
2023-02-24T06:39:46.011Z,6.38
2023-02-24T06:42:13.756Z,6.11
2023-02-24T06:44:41.633Z,6.81
2023-02-24T06:47:13.525Z,8.16
2023-02-24T06:49:41.648Z,9.02
2023-02-24T06:52:08.784Z,8.96
2023-02-24T06:54:36.193Z,7.55
2023-02-24T06:57:04.231Z,7.98
2023-02-24T06:59:31.212Z,7.32
2023-02-24T07:02:02.341Z,9.93
2023-02-24T07:04:29.858Z,8.08
2023-02-24T07:07:03.767Z,8.51
2023-02-24T07:09:31.548Z,8.38
2023-02-24T07:11:58.978Z,8.96
2023-02-24T07:14:30.632Z,6.46
2023-02-24T07:16:58.545Z,8.90
2023-02-24T07:19:29.232Z,8.80
2023-02-24T07:22:02.437Z,9.49
2023-02-24T07:24:36.719Z,7.80
2023-02-24T07:27:07.916Z,7.36
2023-02-24T07:29:36.319Z,8.74
2023-02-24T07:32:06.242Z,9.12
2023-02-24T07:34:33.923Z,9.29
2023-02-24T07:37:07.894Z,7.83
2023-02-24T07:39:37.115Z,9.21
2023-02-24T07:42:04.867Z,7.64
2023-02-24T07:44:41.063Z,5.56
2023-02-24T07:47:08.410Z,6.89
2023-02-24T07:49:36.240Z,8.17
2023-02-24T07:52:03.684Z,6.43
2023-02-24T07:54:30.608Z,10.65
2023-02-24T07:56:59.708Z,10.31
2023-02-24T07:59:32.889Z,9.18
2023-02-24T08:02:05.150Z,10.27
2023-02-24T08:04:34.052Z,9.70
2023-02-24T08:07:03.892Z,10.06
2023-02-24T08:09:45.039Z,9.86
2023-02-24T08:12:18.196Z,13.62
2023-02-24T08:14:51.161Z,13.17
2023-02-24T08:17:23.507Z,11.31
2023-02-24T08:20:12.746Z,10.98
2023-02-24T08:22:44.045Z,11.62
2023-02-24T08:25:18.526Z,13.79
2023-02-24T08:28:06.778Z,9.77
2023-02-24T08:30:39.678Z,11.75
2023-02-24T08:33:10.640Z,12.78
2023-02-24T08:35:45.273Z,13.35
2023-02-24T08:38:21.077Z,12.25
2023-02-24T08:40:53.720Z,12.44
2023-02-24T08:43:30.106Z,12.46
2023-02-24T08:46:01.023Z,13.63
2023-02-24T08:48:37.613Z,14.40
2023-02-24T08:51:22.772Z,13.41
2023-02-24T08:53:55.150Z,13.18
2023-02-24T08:56:35.129Z,12.20
2023-02-24T08:59:06.141Z,12.93
2023-02-24T09:01:39.011Z,11.44
2023-02-24T09:04:11.256Z,10.41
2023-02-24T09:06:40.546Z,14.12
2023-02-24T09:09:21.378Z,13.79
2023-02-24T09:11:56.565Z,12.34
2023-02-24T09:14:36.505Z,15.13
2023-02-24T09:17:11.513Z,15.12
2023-02-24T09:19:52.248Z,14.85
2023-02-24T09:22:28.555Z,15.37
2023-02-24T09:25:18.145Z,15.87
2023-02-24T09:27:52.520Z,14.82
2023-02-24T09:30:36.046Z,14.94
2023-02-24T09:33:07.214Z,14.14
2023-02-24T09:35:41.833Z,15.32
2023-02-24T09:38:08.682Z,11.46
2023-02-24T09:40:40.266Z,15.10
2023-02-24T09:43:17.939Z,13.98
2023-02-24T09:46:15.170Z,14.73
2023-02-24T09:49:17.344Z,13.39
2023-02-24T09:51:45.109Z,14.04
2023-02-24T09:54:24.807Z,14.28
2023-02-24T09:57:08.415Z,14.84
2023-02-24T10:00:01.534Z,14.03
2023-02-24T10:02:34.315Z,15.76
2023-02-24T10:05:38.482Z,15.88
2023-02-24T10:08:18.116Z,13.22
2023-02-24T10:11:05.272Z,14.16
2023-02-24T10:13:32.941Z,13.33
2023-02-24T10:16:06.711Z,13.23
2023-02-24T10:19:11.787Z,13.49
2023-02-24T10:21:49.555Z,16.54
2023-02-24T10:24:29.912Z,14.74
2023-02-24T10:27:25.771Z,16.32
2023-02-24T10:30:11.350Z,16.97
2023-02-24T10:32:59.116Z,15.14
2023-02-24T10:35:33.835Z,15.89
2023-02-24T10:38:05.623Z,12.80
2023-02-24T10:40:46.798Z,14.36
2023-02-24T10:43:20.420Z,15.19
2023-02-24T10:45:48.169Z,13.85
2023-02-24T10:48:40.696Z,12.54
2023-02-24T10:51:20.410Z,15.95
2023-02-24T10:53:53.287Z,14.95
2023-02-24T10:56:30.694Z,16.30
2023-02-24T10:59:21.724Z,14.01
2023-02-24T11:02:02.981Z,15.85
2023-02-24T11:05:04.258Z,16.29
2023-02-24T11:07:53.485Z,14.34
2023-02-24T11:10:26.923Z,16.01
2023-02-24T11:13:15.363Z,13.47
2023-02-24T11:16:06.216Z,14.74
2023-02-24T11:18:34.001Z,16.80
2023-02-24T11:21:05.113Z,15.40
2023-02-24T11:23:45.410Z,14.95
2023-02-24T11:26:18.211Z,16.17
2023-02-24T11:29:07.233Z,12.87
2023-02-24T11:32:08.993Z,15.14
2023-02-24T11:34:58.210Z,15.88
2023-02-24T11:37:38.114Z,14.40
2023-02-24T11:40:23.166Z,14.06
2023-02-24T11:43:07.401Z,14.97
2023-02-24T11:45:34.296Z,13.77
2023-02-24T11:48:15.146Z,13.80
2023-02-24T11:50:51.110Z,14.08
2023-02-24T11:53:21.324Z,15.57
2023-02-24T11:55:59.233Z,16.61
2023-02-24T11:58:32.234Z,13.60
2023-02-24T12:01:10.166Z,13.85
2023-02-24T12:03:54.488Z,12.61
2023-02-24T12:06:28.966Z,15.15
2023-02-24T12:09:03.409Z,14.82
2023-02-24T12:11:40.757Z,13.57
2023-02-24T12:14:31.288Z,15.82
2023-02-24T12:17:39.977Z,15.01
2023-02-24T12:20:21.789Z,15.79
2023-02-24T12:22:58.298Z,14.08
2023-02-24T12:25:50.455Z,15.14
2023-02-24T12:28:35.041Z,14.77
2023-02-24T12:31:23.896Z,14.73
2023-02-24T12:33:56.877Z,13.99
2023-02-24T12:36:45.407Z,15.62
2023-02-24T12:39:21.882Z,14.93
2023-02-24T12:42:03.665Z,14.73
2023-02-24T12:44:52.041Z,15.16
2023-02-24T12:47:57.286Z,14.30
2023-02-24T12:50:42.047Z,14.23
2023-02-24T12:53:31.803Z,12.19
2023-02-24T12:56:22.016Z,13.44
2023-02-24T12:58:56.289Z,15.01
2023-02-24T13:01:40.948Z,12.92
2023-02-24T13:04:33.122Z,14.77
2023-02-24T13:07:29.967Z,16.99
2023-02-24T13:10:03.199Z,16.98
2023-02-24T13:12:55.780Z,16.72
2023-02-24T13:15:25.634Z,16.98
2023-02-24T13:17:57.698Z,16.59
2023-02-24T13:20:31.982Z,17.20
2023-02-24T13:23:01.252Z,16.90
2023-02-24T13:25:34.289Z,15.62
2023-02-24T13:28:06.251Z,17.06
2023-02-24T13:30:38.778Z,17.46
2023-02-24T13:33:18.042Z,17.30
2023-02-24T13:35:47.172Z,14.58
2023-02-24T13:38:32.405Z,15.90
2023-02-24T13:41:34.823Z,14.73
2023-02-24T13:44:25.057Z,14.46
2023-02-24T13:46:58.445Z,14.76
2023-02-24T13:49:59.141Z,14.60
2023-02-24T13:53:03.523Z,15.78
2023-02-24T13:55:45.293Z,17.52
2023-02-24T13:58:27.771Z,17.34
2023-02-24T14:01:05.122Z,13.51
2023-02-24T14:03:33.709Z,15.28
2023-02-24T14:06:02.431Z,15.90
2023-02-24T14:08:42.756Z,13.71
2023-02-24T14:11:16.079Z,16.95
2023-02-24T14:13:49.708Z,14.85
2023-02-24T14:16:23.904Z,15.80
2023-02-24T14:18:56.536Z,15.01
2023-02-24T14:21:26.989Z,15.08
2023-02-24T14:24:24.198Z,14.45
2023-02-24T14:26:57.153Z,13.24
2023-02-24T14:29:32.438Z,13.91
2023-02-24T14:31:59.982Z,14.26
2023-02-24T14:34:30.421Z,16.04
2023-02-24T14:36:59.246Z,16.77
2023-02-24T14:39:29.486Z,14.83
2023-02-24T14:42:09.150Z,12.45
2023-02-24T14:44:42.503Z,17.02
2023-02-24T14:47:11.674Z,17.11
2023-02-24T14:49:39.336Z,16.21
2023-02-24T14:52:22.319Z,15.30
2023-02-24T14:54:57.482Z,15.28
2023-02-24T14:57:29.279Z,14.55
2023-02-24T15:00:10.788Z,15.54
2023-02-24T15:02:43.848Z,15.82
2023-02-24T15:05:11.960Z,13.60
2023-02-24T15:07:43.395Z,14.21
2023-02-24T15:10:21.490Z,16.72
2023-02-24T15:13:00.714Z,14.86
2023-02-24T15:15:35.747Z,16.75
2023-02-24T15:18:12.500Z,16.65
2023-02-24T15:20:40.946Z,17.26
2023-02-24T15:23:26.597Z,17.55
2023-02-24T15:25:53.448Z,16.58
2023-02-24T15:28:32.373Z,16.60
2023-02-24T15:31:02.062Z,16.18
2023-02-24T15:33:41.999Z,17.11
2023-02-24T15:36:21.366Z,16.56
2023-02-24T15:38:53.541Z,15.86
2023-02-24T15:41:20.558Z,16.28
2023-02-24T15:43:50.186Z,15.20
2023-02-24T15:46:26.195Z,13.85
2023-02-24T15:48:56.006Z,14.85
2023-02-24T15:51:32.330Z,15.91
2023-02-24T15:54:01.390Z,16.79
2023-02-24T15:56:28.784Z,17.14
2023-02-24T15:58:55.569Z,17.16
2023-02-24T16:01:22.378Z,15.39
2023-02-24T16:03:49.812Z,17.08
2023-02-24T16:06:22.069Z,16.72
2023-02-24T16:08:53.041Z,17.09
2023-02-24T16:11:26.975Z,14.94
2023-02-24T16:13:57.863Z,14.90
2023-02-24T16:16:26.632Z,16.79
2023-02-24T16:18:54.401Z,17.39
2023-02-24T16:21:21.270Z,16.34
2023-02-24T16:23:48.806Z,15.46
2023-02-24T16:26:19.148Z,16.24
2023-02-24T16:28:55.485Z,17.52
2023-02-24T16:31:25.474Z,15.80
2023-02-24T16:33:55.852Z,16.94
2023-02-24T16:36:28.185Z,14.78
2023-02-24T16:38:55.780Z,15.67
2023-02-24T16:41:24.260Z,14.78
2023-02-24T16:43:51.416Z,14.39
2023-02-24T16:46:22.824Z,14.78
2023-02-24T16:48:53.596Z,14.02
2023-02-24T16:51:22.495Z,15.11
2023-02-24T16:53:49.289Z,14.25
2023-02-24T16:56:16.249Z,15.45
2023-02-24T16:58:42.999Z,15.51
2023-02-24T17:01:18.395Z,14.12
2023-02-24T17:03:51.155Z,14.33
2023-02-24T17:06:20.816Z,14.90
2023-02-24T17:08:49.781Z,15.12
2023-02-24T17:11:21.794Z,15.62
2023-02-24T17:13:48.664Z,15.65
2023-02-24T17:16:15.404Z,15.00
2023-02-24T17:18:42.144Z,15.53
2023-02-24T17:21:13.382Z,14.78
2023-02-24T17:23:42.505Z,14.79
2023-02-24T17:26:13.781Z,15.29
2023-02-24T17:28:41.060Z,15.14
2023-02-24T17:31:08.031Z,13.46
2023-02-24T17:33:35.120Z,13.83
2023-02-24T17:36:01.845Z,14.14
2023-02-24T17:38:28.742Z,14.78
2023-02-24T17:40:57.581Z,15.10
2023-02-24T17:43:25.008Z,12.21
2023-02-24T17:45:53.306Z,10.92
2023-02-24T17:48:20.846Z,14.00
2023-02-24T17:50:48.620Z,10.98
2023-02-24T17:53:15.834Z,10.59
2023-02-24T17:56:01.119Z,11.86
2023-02-24T17:58:29.061Z,13.89
2023-02-24T18:00:56.380Z,12.29
2023-02-24T18:03:23.503Z,14.19
2023-02-24T18:06:04.179Z,15.09
2023-02-24T18:08:33.987Z,12.86
2023-02-24T18:11:01.395Z,12.99
2023-02-24T18:13:29.560Z,10.67
2023-02-24T18:15:56.998Z,11.48
2023-02-24T18:18:25.315Z,10.38
2023-02-24T18:20:52.137Z,10.21
2023-02-24T18:23:18.992Z,10.19
2023-02-24T18:25:45.714Z,9.28
2023-02-24T18:28:12.474Z,11.24
2023-02-24T18:30:40.697Z,10.13
2023-02-24T18:33:07.615Z,9.20
2023-02-24T18:35:34.507Z,10.26
2023-02-24T18:38:02.798Z,11.30
2023-02-24T18:40:29.925Z,8.46
2023-02-24T18:42:57.148Z,10.74
2023-02-24T18:45:24.750Z,9.29
2023-02-24T18:47:52.400Z,10.68
2023-02-24T18:50:19.291Z,10.60
2023-02-24T18:52:46.118Z,9.00
2023-02-24T18:55:12.832Z,12.52
2023-02-24T18:57:41.047Z,10.25
2023-02-24T19:00:12.609Z,10.28
2023-02-24T19:02:41.075Z,10.00
2023-02-24T19:05:08.658Z,10.34
2023-02-24T19:07:35.819Z,12.18
2023-02-24T19:10:02.614Z,8.97
2023-02-24T19:12:29.339Z,9.98
2023-02-24T19:14:56.416Z,10.90
2023-02-24T19:17:24.124Z,7.76
2023-02-24T19:19:50.957Z,9.93
2023-02-24T19:22:17.686Z,10.54
2023-02-24T19:24:44.553Z,11.59
2023-02-24T19:27:11.509Z,11.72
2023-02-24T19:29:38.352Z,9.39
2023-02-24T19:32:05.411Z,9.36
2023-02-24T19:34:32.329Z,10.29
2023-02-24T19:36:59.124Z,9.58
2023-02-24T19:39:26.504Z,10.32
2023-02-24T19:41:53.488Z,10.04
2023-02-24T19:44:20.321Z,11.00
2023-02-24T19:46:47.171Z,11.39
2023-02-24T19:49:14.008Z,9.47
2023-02-24T19:51:41.776Z,8.80
2023-02-24T19:54:13.200Z,10.35
2023-02-24T19:56:40.699Z,10.39
2023-02-24T19:59:08.785Z,13.24
2023-02-24T20:01:35.719Z,10.03
2023-02-24T20:04:03.650Z,10.42
2023-02-24T20:06:33.585Z,10.39
2023-02-24T20:09:00.840Z,9.68
2023-02-24T20:11:33.269Z,11.30
2023-02-24T20:14:00.010Z,9.06
2023-02-24T20:16:32.014Z,10.87
2023-02-24T20:18:58.749Z,9.44
2023-02-24T20:21:25.933Z,11.03
2023-02-24T20:23:53.348Z,11.57
2023-02-24T20:26:21.783Z,9.96
2023-02-24T20:28:49.038Z,9.19
2023-02-24T20:31:21.111Z,9.87
2023-02-24T20:33:49.600Z,11.53
2023-02-24T20:36:18.548Z,10.68
2023-02-24T20:38:45.405Z,9.79
2023-02-24T20:41:13.119Z,11.55
2023-02-24T20:43:40.065Z,9.74
2023-02-24T20:46:15.485Z,10.51
2023-02-24T20:48:43.310Z,10.28
2023-02-24T20:51:12.672Z,11.00
2023-02-24T20:53:54.650Z,8.22
2023-02-24T20:56:25.013Z,11.62
2023-02-24T20:58:54.140Z,10.26
2023-02-24T21:01:21.194Z,10.60
2023-02-24T21:03:48.239Z,8.91
2023-02-24T21:06:17.171Z,11.90
2023-02-24T21:08:44.525Z,11.05
2023-02-24T21:11:13.545Z,8.92
2023-02-24T21:13:44.732Z,12.35
2023-02-24T21:16:14.040Z,14.25
2023-02-24T21:18:42.787Z,13.31
2023-02-24T21:21:10.621Z,14.27
2023-02-24T21:23:39.612Z,12.54
2023-02-24T21:26:07.730Z,12.79
2023-02-24T21:28:35.546Z,12.97
2023-02-24T21:31:08.973Z,12.88
2023-02-24T21:33:36.116Z,11.14
2023-02-24T21:36:06.761Z,12.87
2023-02-24T21:38:34.477Z,9.68
2023-02-24T21:41:03.360Z,9.96
2023-02-24T21:43:30.632Z,11.07
2023-02-24T21:46:01.418Z,13.02
2023-02-24T21:48:28.638Z,11.15
2023-02-24T21:51:24.757Z,10.98
2023-02-24T21:53:55.049Z,12.91
2023-02-24T21:56:27.575Z,9.58
2023-02-24T21:58:58.812Z,10.34
2023-02-24T22:01:37.619Z,8.70
2023-02-24T22:04:08.108Z,11.16
2023-02-24T22:06:37.124Z,10.90
2023-02-24T22:09:05.989Z,8.46
2023-02-24T22:11:37.822Z,10.01
2023-02-24T22:14:09.870Z,9.89
2023-02-24T22:16:37.549Z,8.67
2023-02-24T22:19:04.877Z,7.85
2023-02-24T22:21:32.362Z,7.35
2023-02-24T22:24:02.182Z,7.20
2023-02-24T22:26:30.879Z,7.58
2023-02-24T22:28:59.314Z,7.96
2023-02-24T22:31:29.912Z,7.73
2023-02-24T22:33:57.408Z,5.80
2023-02-24T22:36:28.017Z,6.74
2023-02-24T22:38:56.615Z,6.88
2023-02-24T22:41:27.286Z,6.86
2023-02-24T22:43:54.406Z,6.86
2023-02-24T22:46:28.276Z,7.88
2023-02-24T22:48:56.341Z,6.35
2023-02-24T22:51:24.383Z,7.99
2023-02-24T22:53:51.874Z,6.26
2023-02-24T22:56:22.264Z,5.85
2023-02-24T22:58:50.108Z,6.31
2023-02-24T23:01:19.739Z,5.63
2023-02-24T23:03:46.632Z,6.07
2023-02-24T23:06:15.968Z,6.78
2023-02-24T23:08:45.894Z,5.80
2023-02-24T23:11:18.356Z,5.96
2023-02-24T23:13:47.842Z,6.24
2023-02-24T23:16:18.666Z,7.72
2023-02-24T23:18:50.760Z,5.56
2023-02-24T23:21:27.643Z,5.94
2023-02-24T23:23:58.652Z,5.72
2023-02-24T23:26:30.385Z,3.16
2023-02-24T23:28:57.149Z,5.48
2023-02-24T23:31:24.508Z,6.97
2023-02-24T23:33:52.305Z,4.83
2023-02-24T23:36:19.082Z,4.54
2023-02-24T23:38:45.871Z,5.35
2023-02-24T23:41:13.677Z,3.24
2023-02-24T23:43:40.853Z,4.69
2023-02-24T23:46:10.480Z,5.20
2023-02-24T23:48:38.577Z,5.14
2023-02-24T23:51:10.945Z,4.70
2023-02-24T23:53:39.059Z,5.42
2023-02-24T23:56:11.295Z,5.73
2023-02-24T23:58:37.983Z,6.42
